Time;durP1;ratioP1;P1;durP2;ratioP2;P2;SDS_P1;SDS_P2;PMS_P1;PMS_P2;Temp;Humidity;BMP_temperature;BMP_pressure;BME280_temperature;BME280_humidity;BME280_pressure;Samples;Min_cycle;Max_cycle;Signal;HPM_P1;HPM_P2
2022/11/12 00:00:12;;;;;;;16.83;10.48;;;;;;;11.01;100.00;102843.28;4915542;29;20738;-47
2022/11/12 00:02:57;;;;;;;14.70;10.32;;;;;;;10.98;100.00;102846.00;4920788;29;20244;-46
2022/11/12 00:05:41;;;;;;;17.10;10.88;;;;;;;10.99;100.00;102845.06;4914767;29;20307;-49
2022/11/12 00:08:24;;;;;;;18.42;11.10;;;;;;;10.97;100.00;102843.31;4920724;29;20191;-47
2022/11/12 00:11:08;;;;;;;17.02;11.27;;;;;;;10.93;100.00;102847.81;4913386;29;20207;-47
2022/11/12 00:13:52;;;;;;;14.20;11.00;;;;;;;10.95;100.00;102853.16;4917943;29;20210;-47
2022/11/12 00:16:36;;;;;;;16.90;11.77;;;;;;;10.90;100.00;102837.09;4917086;29;20307;-49
2022/11/12 00:19:20;;;;;;;15.38;11.55;;;;;;;11.00;100.00;102837.91;4915904;29;20690;-48
2022/11/12 00:22:04;;;;;;;17.50;12.43;;;;;;;10.92;100.00;102841.56;4912105;29;20306;-48
2022/11/12 00:24:48;;;;;;;18.65;12.25;;;;;;;10.87;100.00;102846.06;4918521;29;20186;-48
2022/11/12 00:27:33;;;;;;;18.05;12.77;;;;;;;10.83;100.00;102851.47;4920532;29;20615;-48
2022/11/12 00:30:17;;;;;;;19.42;13.20;;;;;;;10.81;100.00;102842.53;4915291;29;20258;-48
2022/11/12 00:33:03;;;;;;;19.75;12.75;;;;;;;10.80;100.00;102849.72;4919484;29;20294;-47
2022/11/12 00:35:47;;;;;;;18.30;12.82;;;;;;;10.78;100.00;102851.50;4919324;29;20297;-47
2022/11/12 00:38:31;;;;;;;24.48;13.90;;;;;;;10.71;100.00;102850.66;4925530;29;20194;-50
2022/11/12 00:41:15;;;;;;;17.10;13.05;;;;;;;10.75;100.00;102856.88;4914390;29;20206;-46
2022/11/12 00:43:59;;;;;;;22.80;14.70;;;;;;;10.68;100.00;102855.13;4918383;29;20320;-46
2022/11/12 00:46:43;;;;;;;18.27;13.55;;;;;;;10.67;100.00;102864.97;4914388;29;20215;-47
2022/11/12 00:49:27;;;;;;;19.35;13.85;;;;;;;10.68;100.00;102866.75;4913577;29;20271;-48
2022/11/12 00:52:11;;;;;;;22.85;14.15;;;;;;;10.64;100.00;102870.34;4910961;29;20265;-47
2022/11/12 00:54:55;;;;;;;22.30;15.05;;;;;;;10.63;100.00;102857.84;4916860;29;20269;-48
2022/11/12 00:57:39;;;;;;;21.75;14.95;;;;;;;10.67;100.00;102867.66;4923737;29;20694;-46
2022/11/12 01:00:23;;;;;;;18.35;14.60;;;;;;;10.66;100.00;102876.59;4917483;29;20194;-47
2022/11/12 01:03:07;;;;;;;21.92;15.93;;;;;;;10.61;100.00;102864.13;4912210;29;20258;-47
2022/11/12 01:05:51;;;;;;;22.83;15.70;;;;;;;10.60;100.00;102873.94;4918449;29;20252;-48
2022/11/12 01:08:36;;;;;;;20.73;16.10;;;;;;;10.60;100.00;102855.16;4918350;29;20774;-47
2022/11/12 01:11:28;;;;;;;24.92;16.05;;;;;;;10.58;100.00;102867.69;4917473;29;20190;-48
2022/11/12 01:14:12;;;;;;;27.73;17.60;;;;;;;10.59;100.00;102871.28;4912211;29;20527;-46
2022/11/12 01:16:57;;;;;;;22.55;16.92;;;;;;;10.51;100.00;102873.97;4916780;29;20230;-46
2022/11/12 01:19:41;;;;;;;23.25;16.50;;;;;;;10.58;100.00;102875.72;4915825;29;20238;-47
2022/11/12 01:22:25;;;;;;;21.88;17.10;;;;;;;10.55;100.00;102874.88;4910708;29;20663;-46
2022/11/12 01:25:09;;;;;;;23.13;16.77;;;;;;;10.51;100.00;102871.31;4921306;29;20269;-47
2022/11/12 01:27:52;;;;;;;23.33;16.90;;;;;;;10.59;100.00;102865.91;4915831;29;20187;-48
2022/11/12 01:30:36;;;;;;;24.98;17.73;;;;;;;10.50;100.00;102848.09;4916436;29;20552;-50
2022/11/12 01:33:20;;;;;;;26.13;17.90;;;;;;;10.47;100.00;102842.72;4917099;29;20558;-48
2022/11/12 01:36:05;;;;;;;22.58;17.17;;;;;;;10.46;100.00;102852.56;4917150;29;20229;-48
2022/11/12 01:38:51;;;;;;;28.02;18.77;;;;;;;10.45;100.00;102855.25;4916050;29;20207;-48
2022/11/12 01:41:38;;;;;;;25.13;16.98;;;;;;;10.45;100.00;102857.94;4914106;29;20687;-48
2022/11/12 01:44:25;;;;;;;26.70;18.38;;;;;;;10.46;100.00;102859.72;4913357;29;20350;-48
2022/11/12 01:47:31;;;;;;;28.25;17.92;;;;;;;10.46;100.00;102868.66;4914276;29;20223;-47
2022/11/12 01:50:32;;;;;;;25.88;18.17;;;;;;;10.42;100.00;102861.53;4915522;29;20254;-50
2022/11/12 01:53:18;;;;;;;25.20;19.38;;;;;;;10.50;100.00;102869.53;4918651;29;20199;-47
2022/11/12 01:56:04;;;;;;;26.70;18.80;;;;;;;10.42;100.00;102866.00;4920176;28;20302;-48
2022/11/12 01:58:54;;;;;;;24.23;18.52;;;;;;;10.48;100.00;102871.34;4916977;28;20638;-45
2022/11/12 02:01:38;;;;;;;30.45;19.05;;;;;;;10.42;100.00;102863.31;4915371;29;20183;-45
2022/11/12 02:04:24;;;;;;;26.52;19.50;;;;;;;10.54;100.00;102876.66;4922725;29;20203;-46
2022/11/12 02:07:09;;;;;;;24.88;18.95;;;;;;;10.45;100.00;102882.03;4916352;29;20199;-45
2022/11/12 02:09:54;;;;;;;29.55;19.58;;;;;;;10.35;100.00;102862.47;4919044;29;20569;-46
2022/11/12 02:15:41;;;;;;;26.90;20.15;;;;;;;10.33;100.00;102869.59;4917509;29;20719;-45
2022/11/12 02:18:25;;;;;;;27.90;19.85;;;;;;;10.34;100.00;102870.50;4920198;29;20635;-45
2022/11/12 02:21:09;;;;;;;34.08;21.10;;;;;;;10.33;100.00;102864.25;4921565;29;20265;-45
2022/11/12 02:24:25;;;;;;;28.85;20.23;;;;;;;10.32;100.00;102857.13;4923211;29;20679;-44
2022/11/12 02:27:10;;;;;;;30.67;21.17;;;;;;;10.27;100.00;102875.84;4916025;29;20274;-44
2022/11/12 02:29:55;;;;;;;31.75;22.27;;;;;;;10.34;100.00;102867.81;4918222;29;20278;-45
2022/11/12 02:32:38;;;;;;;28.08;20.38;;;;;;;10.31;100.00;102861.56;4920982;29;20199;-45
2022/11/12 02:35:22;;;;;;;25.92;20.27;;;;;;;10.30;100.00;102885.72;4919621;29;20206;-44
2022/11/12 02:38:07;;;;;;;32.28;21.65;;;;;;;10.35;100.00;102896.41;4917512;29;20210;-45
2022/11/12 02:40:52;;;;;;;31.13;21.13;;;;;;;10.33;100.00;102885.69;4914767;29;20295;-45
2022/11/12 02:43:36;;;;;;;34.65;22.20;;;;;;;10.45;100.00;102876.69;4920242;29;20191;-44
2022/11/12 02:46:20;;;;;;;30.63;21.08;;;;;;;10.42;100.00;102892.78;4922546;29;20753;-44
2022/11/12 02:49:04;;;;;;;27.25;21.25;;;;;;;10.42;100.00;102877.59;4915983;29;20680;-45
2022/11/12 02:51:48;;;;;;;31.17;21.35;;;;;;;10.42;100.00;102877.59;4915273;29;20250;-46
2022/11/12 02:54:31;;;;;;;33.70;20.92;;;;;;;10.39;100.00;102876.75;4923226;29;20199;-43
2022/11/12 02:57:16;;;;;;;33.42;22.33;;;;;;;10.33;100.00;102887.47;4913316;28;20234;-46
2022/11/12 02:59:59;;;;;;;33.67;22.08;;;;;;;10.34;100.00;102890.13;4931289;28;20187;-45
2022/11/12 03:02:57;;;;;;;31.15;21.98;;;;;;;10.35;100.00;102893.72;4915104;29;20210;-44
2022/11/12 03:05:41;;;;;;;35.90;22.55;;;;;;;10.33;100.00;102890.16;4915416;29;20211;-46
2022/11/12 03:08:26;;;;;;;34.25;22.98;;;;;;;10.40;100.00;102891.91;4917309;29;20675;-45
2022/11/12 03:11:13;;;;;;;35.88;22.58;;;;;;;10.31;100.00;102904.44;4916134;29;20242;-44
2022/11/12 03:13:57;;;;;;;34.10;22.50;;;;;;;10.31;100.00;102899.06;4920319;29;20309;-45
2022/11/12 03:16:41;;;;;;;31.77;22.63;;;;;;;10.41;100.00;102901.75;4912326;29;20754;-44
2022/11/12 03:19:25;;;;;;;30.67;23.02;;;;;;;10.36;100.00;102892.81;4927282;29;20642;-45
2022/11/12 03:22:09;;;;;;;32.72;22.98;;;;;;;10.30;100.00;102902.66;4918019;29;20621;-46
2022/11/12 03:24:53;;;;;;;32.67;23.65;;;;;;;10.40;100.00;102899.94;4931961;28;20316;-46
2022/11/12 03:27:36;;;;;;;32.72;24.60;;;;;;;10.36;100.00;102900.84;4919916;28;20330;-44
2022/11/12 03:30:21;;;;;;;37.47;24.02;;;;;;;10.28;100.00;102906.22;4916102;29;20191;-45
2022/11/12 03:33:06;;;;;;;34.20;23.58;;;;;;;10.33;100.00;102914.28;4922122;29;20326;-45
2022/11/12 03:35:51;;;;;;;34.55;23.95;;;;;;;10.32;100.00;102910.72;4914266;29;20283;-46
2022/11/12 03:38:35;;;;;;;37.65;24.35;;;;;;;10.28;100.00;102907.09;4919736;29;20210;-43
2022/11/12 03:41:19;;;;;;;38.08;24.40;;;;;;;10.28;100.00;102900.88;4916950;29;20258;-44
2022/11/12 03:44:03;;;;;;;36.72;24.70;;;;;;;10.27;100.00;102915.13;4917878;29;20365;-44
2022/11/12 03:46:47;;;;;;;36.22;24.58;;;;;;;10.30;100.00;102920.53;4915410;29;20577;-46
2022/11/12 03:49:31;;;;;;;36.13;23.80;;;;;;;10.32;100.00;102910.72;4916963;29;20718;-45
2022/11/12 03:52:15;;;;;;;35.88;24.58;;;;;;;10.33;100.00;102908.91;4917262;29;20187;-45
2022/11/12 03:54:59;;;;;;;41.42;24.75;;;;;;;10.29;100.00;102919.63;4924410;29;20232;-43
2022/11/12 03:57:43;;;;;;;31.25;23.40;;;;;;;10.43;100.00;102927.63;4921374;29;20456;-44
2022/11/12 04:00:28;;;;;;;35.88;23.73;;;;;;;10.38;100.00;102932.09;4915562;29;20195;-43
2022/11/12 04:03:13;;;;;;;34.33;24.00;;;;;;;10.41;100.00;102933.91;4914285;29;20203;-45
2022/11/12 04:09:00;;;;;;;31.98;22.75;;;;;;;10.38;100.00;102939.25;4915978;29;20292;-44
2022/11/12 04:11:44;;;;;;;36.28;24.20;;;;;;;10.36;100.00;102944.59;4918256;29;20198;-44
2022/11/12 04:14:27;;;;;;;32.22;22.02;;;;;;;10.46;100.00;102949.06;4918235;29;20210;-43
2022/11/12 04:23:17;;;;;;;36.25;23.02;;;;;;;10.36;100.00;102946.41;4916557;29;20198;-43
2022/11/12 04:32:06;;;;;;;34.67;23.05;;;;;;;10.38;100.00;102939.25;4922403;29;20203;-44
2022/11/12 04:34:51;;;;;;;36.75;22.67;;;;;;;10.36;100.00;102949.97;4915010;29;20691;-46
2022/11/12 04:37:45;;;;;;;34.50;23.50;;;;;;;10.37;100.00;102957.13;4912172;29;20322;-45
2022/11/12 04:46:46;;;;;;;33.03;22.30;;;;;;;10.45;100.00;102952.63;4885151;29;20319;-45
2022/11/12 04:49:30;;;;;;;40.22;23.70;;;;;;;10.39;100.00;102936.59;4919644;29;20871;-45
2022/11/12 04:52:15;;;;;;;34.75;23.95;;;;;;;10.42;100.00;102941.91;4920282;29;20743;-45
2022/11/12 04:54:59;;;;;;;34.90;22.50;;;;;;;10.44;100.00;102948.16;4921287;29;20945;-45
2022/11/12 04:57:43;;;;;;;29.95;22.48;;;;;;;10.43;100.00;102956.19;4915900;29;20775;-44
2022/11/12 05:00:27;;;;;;;38.60;24.20;;;;;;;10.37;100.00;102967.84;4918910;29;20321;-44
2022/11/12 05:03:11;;;;;;;31.65;22.67;;;;;;;10.38;100.00;102948.19;4914598;29;20253;-46
2022/11/12 05:06:49;;;;;;;37.47;23.95;;;;;;;10.34;100.00;102943.72;4915468;29;20203;-45
2022/11/12 05:09:08;;;;;;;40.42;23.90;;;;;;;10.35;100.00;102950.00;4913148;29;20203;-44
2022/11/12 05:11:54;;;;;;;37.83;23.13;;;;;;;10.33;100.00;102946.44;4916256;29;20241;-44
2022/11/12 05:14:38;;;;;;;36.08;23.63;;;;;;;10.30;100.00;102966.09;4915469;29;20194;-46
2022/11/12 05:17:23;;;;;;;37.15;23.02;;;;;;;10.34;100.00;102956.22;4917015;29;20206;-45
2022/11/12 05:20:07;;;;;;;36.83;23.63;;;;;;;10.35;100.00;102932.13;4919099;29;20203;-45
2022/11/12 05:22:51;;;;;;;30.17;22.23;;;;;;;10.36;100.00;102944.59;4916477;29;20206;-45
2022/11/12 05:25:35;;;;;;;34.78;23.17;;;;;;;10.33;100.00;102955.34;4914377;29;20718;-44
2022/11/12 05:28:19;;;;;;;33.72;21.75;;;;;;;10.32;100.00;102964.31;4915925;29;20212;-47
2022/11/12 05:31:03;;;;;;;39.92;23.23;;;;;;;10.33;100.00;102952.66;4921081;29;20187;-45
2022/11/12 05:33:47;;;;;;;31.95;22.85;;;;;;;10.33;100.00;102951.78;4914716;29;20242;-45
2022/11/12 05:36:31;;;;;;;32.03;22.52;;;;;;;10.33;100.00;102967.88;4916501;29;20696;-46
2022/11/12 05:39:15;;;;;;;35.92;22.67;;;;;;;10.33;100.00;102959.81;4921143;29;20210;-45
2022/11/12 05:41:59;;;;;;;34.33;22.50;;;;;;;10.30;100.00;102947.34;4917909;29;20187;-44
2022/11/12 05:44:43;;;;;;;37.08;22.50;;;;;;;10.30;100.00;102942.88;4916454;29;20198;-44
2022/11/12 05:47:27;;;;;;;34.65;22.05;;;;;;;10.28;100.00;102962.50;4916203;29;20207;-45
2022/11/12 05:50:11;;;;;;;31.83;23.17;;;;;;;10.24;100.00;102960.72;4921162;29;20210;-44
2022/11/12 05:52:55;;;;;;;38.33;23.13;;;;;;;10.23;100.00;102951.78;4921082;29;20210;-45
2022/11/12 05:55:39;;;;;;;37.47;22.65;;;;;;;10.19;100.00;102941.06;4916991;29;20211;-45
2022/11/12 05:58:22;;;;;;;35.80;21.88;;;;;;;10.19;100.00;102976.78;4921258;29;20260;-46
2022/11/12 06:01:07;;;;;;;35.67;23.50;;;;;;;10.15;100.00;102972.34;4918307;29;20234;-46
2022/11/12 06:03:50;;;;;;;32.67;22.30;;;;;;;10.20;100.00;102975.88;4924367;28;20654;-44
2022/11/12 06:06:34;;;;;;;33.50;22.33;;;;;;;10.17;100.00;102970.56;4927599;28;20218;-46
2022/11/12 06:09:18;;;;;;;32.45;22.77;;;;;;;10.14;100.00;102962.50;4919946;29;20211;-44
2022/11/12 06:12:05;;;;;;;30.92;22.25;;;;;;;10.14;100.00;102973.22;4921234;29;20569;-46
2022/11/12 06:14:49;;;;;;;31.60;21.77;;;;;;;10.13;100.00;102992.88;4919550;29;20233;-44
2022/11/12 06:17:33;;;;;;;29.75;20.48;;;;;;;10.16;100.00;102979.47;4918003;29;20310;-45
2022/11/12 06:20:18;;;;;;;32.17;22.17;;;;;;;10.17;100.00;102975.03;4915079;29;20219;-44
2022/11/12 06:23:02;;;;;;;35.08;22.55;;;;;;;10.13;100.00;102981.28;4916297;29;20273;-45
2022/11/12 06:25:46;;;;;;;35.28;22.23;;;;;;;10.10;100.00;102984.81;4927918;29;20620;-43
2022/11/12 06:28:30;;;;;;;33.38;22.10;;;;;;;10.07;100.00;102987.53;4917466;29;20632;-44
2022/11/12 06:31:15;;;;;;;34.35;22.40;;;;;;;10.05;100.00;102994.66;4917825;29;20233;-44
2022/11/12 06:33:59;;;;;;;36.08;21.92;;;;;;;10.04;100.00;102992.91;4921809;29;20277;-46
2022/11/12 06:36:43;;;;;;;35.88;23.50;;;;;;;10.03;100.00;102993.78;4918591;29;20205;-45
2022/11/12 06:39:27;;;;;;;32.28;22.27;;;;;;;10.05;100.00;102991.97;4924256;29;20294;-45
2022/11/12 06:42:11;;;;;;;30.58;22.23;;;;;;;10.03;100.00;102996.44;4915701;29;20210;-45
2022/11/12 06:44:55;;;;;;;32.78;22.08;;;;;;;10.00;100.00;103015.22;4919042;29;20283;-45
2022/11/12 06:47:38;;;;;;;30.67;22.63;;;;;;;9.96;100.00;103010.75;4917056;29;20245;-46
2022/11/12 06:50:22;;;;;;;35.67;23.08;;;;;;;10.02;100.00;103008.06;4916303;29;20305;-46
2022/11/12 06:53:06;;;;;;;35.38;22.85;;;;;;;9.98;100.00;103006.28;4918013;29;20622;-46
2022/11/12 06:55:51;;;;;;;34.60;22.48;;;;;;;9.94;100.00;103018.78;4916323;29;20587;-45
2022/11/12 06:58:35;;;;;;;31.00;21.45;;;;;;;9.95;100.00;103025.94;4925481;29;20206;-44
2022/11/12 07:01:19;;;;;;;34.03;24.80;;;;;;;9.93;100.00;103022.34;4919283;29;20557;-45
2022/11/12 07:04:03;;;;;;;31.95;22.48;;;;;;;9.96;100.00;103027.69;4921486;29;20198;-45
2022/11/12 07:06:47;;;;;;;36.53;22.83;;;;;;;9.99;100.00;103029.47;4919529;29;20211;-44
2022/11/12 07:09:31;;;;;;;33.15;22.77;;;;;;;9.92;100.00;103031.28;4918666;29;20297;-45
2022/11/12 07:12:15;;;;;;;32.50;22.95;;;;;;;9.90;100.00;103033.97;4924177;29;20238;-46
2022/11/12 07:14:59;;;;;;;34.20;23.65;;;;;;;9.86;100.00;103032.19;4917481;29;20262;-45
2022/11/12 07:17:46;;;;;;;34.28;21.83;;;;;;;9.84;100.00;103033.06;4916189;29;20286;-44
2022/11/12 07:20:30;;;;;;;30.40;22.98;;;;;;;9.86;100.00;103048.25;4919016;29;20264;-45
2022/11/12 07:23:14;;;;;;;32.92;22.13;;;;;;;9.85;100.00;103035.72;4914995;29;20202;-44
2022/11/12 07:26:12;;;;;;;30.33;22.38;;;;;;;9.89;100.00;103025.94;4920009;29;20257;-46
2022/11/12 07:28:56;;;;;;;37.60;24.40;;;;;;;9.81;100.00;103028.59;4921568;29;20287;-45
2022/11/12 07:31:40;;;;;;;28.58;20.55;;;;;;;9.89;100.00;103042.00;4918679;29;21126;-45
2022/11/12 07:34:24;;;;;;;31.42;23.02;;;;;;;9.87;100.00;103050.00;4912973;29;20246;-44
2022/11/12 07:37:08;;;;;;;30.00;21.35;;;;;;;9.88;100.00;103043.78;4914801;29;20235;-46
2022/11/12 07:39:52;;;;;;;30.05;20.80;;;;;;;9.87;100.00;103033.06;4913293;28;20226;-46
2022/11/12 07:42:36;;;;;;;33.72;23.13;;;;;;;9.88;100.00;103045.53;4918753;29;20262;-46
2022/11/12 07:45:21;;;;;;;33.85;22.30;;;;;;;9.79;100.00;103058.94;4918419;29;20274;-45
2022/11/12 07:48:05;;;;;;;32.25;22.45;;;;;;;9.80;100.00;103056.25;4917145;29;20190;-45
2022/11/12 07:50:49;;;;;;;33.03;21.30;;;;;;;9.81;100.00;103059.81;4915351;29;20257;-46
2022/11/12 07:53:33;;;;;;;31.73;22.58;;;;;;;9.81;100.00;103062.50;4916736;29;20207;-43
2022/11/12 07:56:19;;;;;;;32.67;22.40;;;;;;;9.81;100.00;103070.53;4916925;29;20221;-44
2022/11/12 07:59:03;;;;;;;32.42;22.25;;;;;;;9.76;100.00;103067.84;4915881;29;20203;-44
2022/11/12 08:01:47;;;;;;;29.10;21.27;;;;;;;9.70;100.00;103062.50;4917490;29;20261;-43
2022/11/12 08:04:31;;;;;;;30.23;21.38;;;;;;;9.82;100.00;103064.31;4915724;29;20247;-46
2022/11/12 08:07:15;;;;;;;30.23;22.02;;;;;;;9.71;100.00;103066.97;4917203;29;20278;-45
2022/11/12 08:09:59;;;;;;;30.17;21.23;;;;;;;9.76;100.00;103061.63;4916746;29;20282;-44
2022/11/12 08:12:43;;;;;;;27.38;21.05;;;;;;;9.84;100.00;103055.38;4916920;29;20203;-43
2022/11/12 08:15:27;;;;;;;31.92;20.98;;;;;;;9.80;100.00;103052.69;4912120;29;20261;-43
2022/11/12 08:18:11;;;;;;;31.42;20.80;;;;;;;9.87;100.00;103073.22;4916077;29;20317;-45
2022/11/12 08:21:00;;;;;;;27.63;20.25;;;;;;;9.92;100.00;103087.50;4915468;29;20387;-45
2022/11/12 08:23:44;;;;;;;28.02;20.27;;;;;;;9.93;100.00;103059.84;4918401;29;20579;-46
2022/11/12 08:26:29;;;;;;;27.27;20.15;;;;;;;9.92;100.00;103038.41;4926514;29;20757;-45
2022/11/12 08:29:13;;;;;;;26.42;19.42;;;;;;;9.93;100.00;103059.84;4916947;29;20215;-46
2022/11/12 08:31:57;;;;;;;29.27;19.60;;;;;;;9.91;100.00;103085.72;4915851;29;20195;-45
2022/11/12 08:34:42;;;;;;;24.08;19.17;;;;;;;10.00;100.00;103072.34;4917470;29;20199;-46
2022/11/12 08:37:26;;;;;;;27.30;20.70;;;;;;;9.84;100.00;103055.38;4913203;29;20750;-45
2022/11/12 08:40:11;;;;;;;28.92;20.10;;;;;;;9.82;100.00;103046.44;4913725;29;20321;-43
2022/11/12 08:43:04;;;;;;;30.77;20.88;;;;;;;9.83;100.00;103063.41;4914382;29;20628;-46
2022/11/12 08:45:49;;;;;;;32.72;22.60;;;;;;;9.90;100.00;103076.81;4919111;29;20210;-44
2022/11/12 08:48:34;;;;;;;24.52;20.17;;;;;;;9.94;100.00;103060.72;4917909;29;20214;-46
2022/11/12 08:51:18;;;;;;;28.55;20.95;;;;;;;9.94;100.00;103061.63;4914798;29;20277;-47
2022/11/12 08:54:02;;;;;;;26.92;19.95;;;;;;;10.01;100.00;103058.03;4918958;29;20305;-47
2022/11/12 08:56:47;;;;;;;24.77;19.25;;;;;;;9.99;100.00;103059.84;4916801;29;20258;-44
2022/11/12 08:59:30;;;;;;;28.13;20.60;;;;;;;9.98;100.00;103060.72;4920249;29;20691;-45
2022/11/12 09:02:14;;;;;;;27.63;20.05;;;;;;;10.06;100.00;103071.47;4917730;29;20222;-47
2022/11/12 09:04:58;;;;;;;25.73;19.95;;;;;;;10.09;100.00;103066.09;4917190;29;20588;-43
2022/11/12 09:07:42;;;;;;;27.05;19.77;;;;;;;10.12;100.00;103066.06;4927305;29;21210;-46
2022/11/12 09:10:27;;;;;;;26.70;20.60;;;;;;;10.22;100.00;103059.81;4915392;29;20668;-46
2022/11/12 09:13:13;;;;;;;26.83;19.65;;;;;;;10.26;100.00;103066.09;4920185;29;20605;-44
2022/11/12 09:16:05;;;;;;;24.15;18.50;;;;;;;10.35;100.00;103078.63;4915278;29;20604;-43
2022/11/12 09:18:49;;;;;;;26.92;19.52;;;;;;;10.34;100.00;103076.81;4919381;29;20227;-45
2022/11/12 09:21:33;;;;;;;25.20;18.42;;;;;;;10.25;100.00;103085.72;4911798;29;20199;-44
2022/11/12 09:24:17;;;;;;;25.17;19.13;;;;;;;10.28;100.00;103073.22;4924883;29;20704;-45
2022/11/12 09:27:01;;;;;;;25.05;18.52;;;;;;;10.34;100.00;103080.38;4918110;29;20219;-45
2022/11/12 09:29:46;;;;;;;31.25;19.67;;;;;;;10.28;100.00;103088.41;4913247;29;20194;-43
2022/11/12 09:32:30;;;;;;;29.27;18.85;;;;;;;10.31;100.00;103089.31;4914921;29;20228;-47
2022/11/12 09:35:14;;;;;;;24.98;18.52;;;;;;;10.27;100.00;103079.47;4918471;29;20249;-45
2022/11/12 09:37:58;;;;;;;30.55;19.35;;;;;;;10.28;100.00;103093.78;4915845;29;20722;-44
2022/11/12 09:40:51;;;;;;;24.48;19.52;;;;;;;10.37;100.00;103103.63;4917256;29;20206;-46
2022/11/12 09:43:41;;;;;;;25.88;19.17;;;;;;;10.32;100.00;103103.63;4917455;28;20478;-47
2022/11/12 09:46:49;;;;;;;28.77;19.40;;;;;;;10.46;100.00;103107.16;4912300;29;20627;-47
2022/11/12 09:49:41;;;;;;;28.17;18.92;;;;;;;10.42;100.00;103116.09;4913611;29;20250;-47
2022/11/12 09:52:29;;;;;;;20.60;16.88;;;;;;;10.58;100.00;103106.25;4920229;29;20281;-49
2022/11/12 09:55:40;;;;;;;24.95;19.10;;;;;;;10.62;100.00;103120.56;4911045;29;20210;-49
2022/11/12 09:58:26;;;;;;;19.55;15.85;;;;;;;10.74;100.00;103104.44;4914987;29;20239;-48
2022/11/12 10:01:33;;;;;;;24.08;17.50;;;;;;;10.75;100.00;103111.59;4911340;29;20242;-46
2022/11/12 10:04:43;;;;;;;24.25;17.25;;;;;;;10.79;100.00;103110.69;4912952;29;20211;-49
2022/11/12 10:07:59;;;;;;;24.08;17.55;;;;;;;10.77;100.00;103106.22;4915183;29;20234;-46
2022/11/12 10:10:47;;;;;;;23.00;17.63;;;;;;;10.83;100.00;103119.63;4915551;29;20199;-48
2022/11/12 10:13:43;;;;;;;21.42;16.63;;;;;;;10.91;100.00;103123.16;4917554;29;20243;-47
2022/11/12 10:16:50;;;;;;;21.35;15.48;;;;;;;10.99;100.00;103134.75;4920163;29;20604;-48
2022/11/12 10:20:03;;;;;;;22.88;16.75;;;;;;;10.99;100.00;103134.75;4920726;28;20209;-48
2022/11/12 10:23:12;;;;;;;20.30;17.00;;;;;;;10.97;100.00;103144.59;4910347;29;20271;-48
2022/11/12 10:25:59;;;;;;;21.27;16.00;;;;;;;11.06;100.00;103149.97;4920713;29;20225;-48
2022/11/12 10:28:51;;;;;;;18.77;15.73;;;;;;;11.03;100.00;103154.44;4916645;29;20254;-47
2022/11/12 10:31:35;;;;;;;26.27;19.15;;;;;;;10.98;100.00;103146.41;4920251;29;20241;-47
2022/11/12 10:34:21;;;;;;;21.40;16.40;;;;;;;11.02;100.00;103141.91;4924333;29;20210;-49
2022/11/12 10:37:16;;;;;;;24.65;17.50;;;;;;;11.09;100.00;103149.06;4913467;29;20234;-50
2022/11/12 10:40:21;;;;;;;22.23;18.17;;;;;;;11.01;100.00;103142.81;4913085;29;20400;-47
2022/11/12 10:43:21;;;;;;;24.65;17.02;;;;;;;11.02;100.00;103150.88;4913189;29;20191;-47
2022/11/12 10:46:18;;;;;;;25.83;17.23;;;;;;;10.97;100.00;103141.03;4917108;29;20214;-49
2022/11/12 10:49:15;;;;;;;26.75;18.10;;;;;;;10.91;100.00;103139.25;4915862;29;20613;-50
2022/11/12 10:51:59;;;;;;;22.42;16.48;;;;;;;10.96;100.00;103140.16;4916643;29;20695;-47
2022/11/12 10:54:43;;;;;;;21.55;17.00;;;;;;;11.02;100.00;103126.72;4918606;29;20614;-48
2022/11/12 10:57:27;;;;;;;25.10;17.52;;;;;;;11.09;100.00;103122.22;4918378;29;20262;-47
2022/11/12 11:00:17;;;;;;;23.58;17.70;;;;;;;11.00;100.00;103132.97;4918366;29;20193;-49
2022/11/12 11:03:06;;;;;;;23.33;18.70;;;;;;;10.90;100.00;103137.47;4921155;29;20591;-49
2022/11/12 11:06:16;;;;;;;22.20;16.58;;;;;;;11.00;100.00;103135.66;4920960;29;20206;-49
2022/11/12 11:09:16;;;;;;;20.88;17.58;;;;;;;10.98;100.00;103135.69;4925679;29;20629;-49
2022/11/12 11:12:01;;;;;;;20.23;17.55;;;;;;;11.07;100.00;103141.00;4916766;29;20625;-50
2022/11/12 11:14:46;;;;;;;23.45;18.45;;;;;;;11.06;100.00;103128.50;4919609;29;20203;-49
2022/11/12 11:17:30;;;;;;;20.02;17.30;;;;;;;11.19;100.00;103126.66;4917839;29;20268;-49
2022/11/12 11:20:51;;;;;;;20.88;17.25;;;;;;;11.19;100.00;103125.75;4918718;29;20203;-49
2022/11/12 11:24:13;;;;;;;21.35;17.10;;;;;;;11.19;100.00;103123.97;4915067;29;20733;-50
2022/11/12 11:27:36;;;;;;;21.52;16.40;;;;;;;11.23;100.00;103125.75;4923113;29;20269;-50
2022/11/12 11:30:21;;;;;;;20.40;16.08;;;;;;;11.32;100.00;103119.44;4919623;29;20714;-48
2022/11/12 11:33:21;;;;;;;20.67;16.67;;;;;;;11.48;100.00;103121.16;4916244;29;20201;-48
2022/11/12 11:36:37;;;;;;;21.38;16.98;;;;;;;11.50;100.00;103123.81;4917514;29;20286;-50
2022/11/12 11:39:26;;;;;;;23.08;16.92;;;;;;;11.56;100.00;103129.16;4921373;29;20353;-51
2022/11/12 11:42:55;;;;;;;17.67;14.05;;;;;;;11.75;100.00;103125.47;4919019;29;20230;-47
2022/11/12 11:45:51;;;;;;;21.30;16.38;;;;;;;11.67;100.00;103129.09;4921131;29;20302;-49
2022/11/12 11:48:51;;;;;;;20.48;15.98;;;;;;;11.77;100.00;103128.16;4916404;29;20202;-49
2022/11/12 11:52:01;;;;;;;17.40;15.15;;;;;;;11.87;100.00;103123.59;4915096;29;20299;-50
2022/11/12 11:55:08;;;;;;;19.73;15.68;;;;;;;11.86;100.00;103122.72;4920003;29;20283;-48
2022/11/12 11:58:01;;;;;;;21.52;15.65;;;;;;;11.94;100.00;103128.97;4916006;29;20269;-49
2022/11/12 12:01:20;;;;;;;20.77;15.57;;;;;;;12.01;100.00;103121.75;4919899;29;20667;-49
2022/11/12 12:04:38;;;;;;;17.27;15.07;;;;;;;12.15;100.00;103113.56;4913194;29;20203;-49
2022/11/12 12:07:51;;;;;;;21.65;15.52;;;;;;;12.35;100.00;103102.66;4913019;29;20191;-49
2022/11/12 12:10:47;;;;;;;18.88;14.20;;;;;;;12.52;100.00;103103.38;4919802;29;20246;-48
2022/11/12 12:13:52;;;;;;;18.23;13.85;;;;;;;12.69;100.00;103105.91;4911731;29;20207;-49
2022/11/12 12:17:06;;;;;;;16.65;13.52;;;;;;;12.69;100.00;103111.28;4912222;29;20227;-48
2022/11/12 12:20:23;;;;;;;16.10;13.70;;;;;;;12.59;100.00;103101.53;4912507;29;20683;-49
2022/11/12 12:23:18;;;;;;;20.85;14.40;;;;;;;12.58;100.00;103108.69;4916306;29;20566;-48
2022/11/12 12:26:10;;;;;;;17.58;13.13;;;;;;;12.62;100.00;103101.50;4924535;29;20716;-49
2022/11/12 12:29:18;;;;;;;13.73;11.45;;;;;;;12.81;100.00;103112.06;4920427;29;20195;-50
2022/11/12 12:32:12;;;;;;;16.35;13.82;;;;;;;12.94;99.28;103089.47;4915466;29;20203;-49
2022/11/12 12:35:20;;;;;;;21.50;14.65;;;;;;;12.73;98.47;103088.81;4917455;29;20720;-48
2022/11/12 12:38:27;;;;;;;16.13;14.43;;;;;;;12.61;98.62;103088.06;4915045;29;20273;-48
2022/11/12 12:41:26;;;;;;;17.38;13.32;;;;;;;12.43;99.21;103089.16;4916089;29;20198;-48
2022/11/12 12:44:11;;;;;;;17.80;14.25;;;;;;;12.26;99.79;103087.50;4919266;29;20194;-49
2022/11/12 12:46:57;;;;;;;18.40;15.68;;;;;;;12.18;100.00;103081.31;4919200;29;20231;-49
2022/11/12 12:49:44;;;;;;;19.50;16.45;;;;;;;12.01;100.00;103073.41;4909254;29;20249;-48
2022/11/12 12:52:28;;;;;;;19.77;16.73;;;;;;;11.93;100.00;103078.81;4923962;29;20241;-49
2022/11/12 12:55:38;;;;;;;23.88;16.13;;;;;;;11.93;100.00;103080.63;4920540;29;20640;-50
2022/11/12 12:58:26;;;;;;;18.92;15.95;;;;;;;11.85;100.00;103077.97;4924301;29;20648;-49
2022/11/12 13:01:22;;;;;;;18.25;14.80;;;;;;;12.15;100.00;103086.69;4911347;29;20203;-50